createdAt,value
2019-04-06T00:01:05.217Z,26.79
2019-04-06T00:03:39.202Z,26.66
2019-04-06T00:06:16.777Z,26.58
2019-04-06T00:08:55.541Z,26.66
2019-04-06T00:11:29.692Z,26.24
2019-04-06T00:14:06.935Z,26.27
2019-04-06T00:16:40.834Z,26.62
2019-04-06T00:19:14.501Z,25.58
2019-04-06T00:21:50.312Z,25.44
2019-04-06T00:24:26.578Z,24.66
2019-04-06T00:27:01.391Z,23.50
2019-04-06T00:29:35.261Z,23.55
2019-04-06T00:32:10.022Z,22.51
2019-04-06T00:34:45.289Z,21.79
2019-04-06T00:37:18.851Z,21.48
2019-04-06T00:39:52.435Z,21.57
2019-04-06T00:42:26.208Z,21.41
2019-04-06T00:45:01.716Z,20.86
2019-04-06T00:47:35.568Z,20.35
2019-04-06T00:50:10.275Z,20.11
2019-04-06T00:52:44.096Z,19.91
2019-04-06T00:55:37.188Z,20.08
2019-04-06T00:58:11.133Z,19.83
2019-04-06T01:00:45.552Z,19.52
2019-04-06T01:03:19.069Z,19.12
2019-04-06T01:05:53.105Z,18.74
2019-04-06T01:08:27.049Z,18.75
2019-04-06T01:11:00.835Z,18.94
2019-04-06T01:13:35.130Z,19.08
2019-04-06T01:16:08.761Z,18.37
2019-04-06T01:18:42.697Z,19.18
2019-04-06T01:21:16.944Z,19.23
2019-04-06T01:23:50.946Z,19.41
2019-04-06T01:26:24.810Z,19.80
2019-04-06T01:29:18.403Z,21.86
2019-04-06T01:31:52.705Z,22.23
2019-04-06T01:34:26.643Z,21.48
2019-04-06T01:37:00.503Z,22.58
2019-04-06T01:39:36.209Z,22.62
2019-04-06T01:42:11.074Z,22.49
2019-04-06T01:44:44.791Z,22.88
2019-04-06T01:47:18.727Z,23.26
2019-04-06T01:49:52.486Z,23.32
2019-04-06T01:52:26.425Z,23.41
2019-04-06T01:55:02.392Z,24.09
2019-04-06T01:57:36.306Z,24.29
2019-04-06T02:00:11.447Z,24.48
2019-04-06T02:02:45.319Z,24.26
2019-04-06T02:05:40.874Z,24.33
2019-04-06T02:08:14.930Z,24.55
2019-04-06T02:10:48.556Z,24.08
2019-04-06T02:13:22.762Z,23.76
2019-04-06T02:15:56.665Z,23.43
2019-04-06T02:18:31.517Z,23.72
2019-04-06T02:21:05.430Z,23.52
2019-04-06T02:23:39.214Z,23.06
2019-04-06T02:26:14.235Z,23.05
2019-04-06T02:28:48.478Z,22.89
2019-04-06T02:31:22.655Z,22.77
2019-04-06T02:33:56.309Z,22.77
2019-04-06T02:36:29.989Z,22.75
2019-04-06T02:39:03.810Z,22.24
2019-04-06T02:41:37.881Z,22.11
2019-04-06T02:44:12.089Z,21.82
2019-04-06T02:46:45.817Z,21.77
2019-04-06T02:49:19.739Z,20.61
2019-04-06T02:51:54.080Z,19.49
2019-04-06T02:54:27.875Z,20.30
2019-04-06T02:57:03.230Z,19.87
2019-04-06T02:59:37.089Z,20.14
2019-04-06T03:02:13.159Z,19.68
2019-04-06T03:04:47.042Z,20.03
2019-04-06T03:07:20.804Z,19.84
2019-04-06T03:09:54.777Z,19.81
2019-04-06T03:12:28.379Z,19.71
2019-04-06T03:15:02.636Z,20.30
2019-04-06T03:17:36.290Z,20.89
2019-04-06T03:20:10.934Z,20.68
2019-04-06T03:22:45.924Z,20.88
2019-04-06T03:25:19.710Z,21.12
2019-04-06T03:27:55.375Z,19.89
2019-04-06T03:30:31.260Z,20.74
2019-04-06T03:33:05.841Z,22.16
2019-04-06T03:35:46.028Z,21.79
2019-04-06T03:38:14.946Z,20.62
2019-04-06T03:40:48.880Z,20.62
2019-04-06T03:43:24.336Z,20.62
2019-04-06T03:45:59.124Z,20.61
2019-04-06T03:48:39.417Z,21.13
2019-04-06T03:51:14.544Z,21.32
2019-04-06T03:53:48.973Z,21.60
2019-04-06T03:56:23.364Z,21.55
2019-04-06T03:58:57.737Z,20.96
2019-04-06T04:01:33.244Z,20.00
2019-04-06T04:04:07.586Z,20.30
2019-04-06T04:06:48.344Z,19.89
2019-04-06T04:09:23.833Z,19.29
2019-04-06T04:11:58.211Z,18.54
2019-04-06T04:14:34.117Z,19.22
2019-04-06T04:17:07.929Z,19.54
2019-04-06T04:19:44.280Z,19.77
2019-04-06T04:22:20.681Z,20.23
2019-04-06T04:24:54.924Z,19.87
2019-04-06T04:27:30.489Z,19.74
2019-04-06T04:30:04.541Z,19.64
2019-04-06T04:32:42.184Z,19.81
2019-04-06T04:35:18.328Z,18.72
2019-04-06T04:37:50.869Z,18.88
2019-04-06T04:40:25.299Z,18.36
2019-04-06T04:42:59.424Z,18.40
2019-04-06T04:45:33.881Z,18.78
2019-04-06T04:48:10.076Z,17.26
2019-04-06T04:50:51.069Z,16.63
2019-04-06T04:53:25.441Z,17.71
2019-04-06T04:55:59.372Z,17.38
2019-04-06T04:58:32.873Z,17.19
2019-04-06T05:01:06.742Z,17.74
2019-04-06T05:03:41.400Z,18.30
2019-04-06T05:06:17.600Z,18.24
2019-04-06T05:08:53.103Z,17.18
2019-04-06T05:11:27.381Z,17.03
2019-04-06T05:14:36.844Z,17.40
2019-04-06T05:17:10.682Z,18.25
2019-04-06T05:19:45.177Z,19.20
2019-04-06T05:22:18.999Z,18.79
2019-04-06T05:24:53.209Z,19.50
2019-04-06T05:27:27.221Z,19.66
2019-04-06T05:30:01.538Z,20.05
2019-04-06T05:32:35.421Z,20.05
2019-04-06T05:35:10.306Z,17.73
2019-04-06T05:37:44.306Z,17.85
2019-04-06T05:40:19.791Z,18.86
2019-04-06T05:42:53.684Z,19.68
2019-04-06T05:45:28.899Z,20.33
2019-04-06T05:48:03.397Z,20.72
2019-04-06T05:50:41.384Z,20.63
2019-04-06T05:53:15.800Z,20.91
2019-04-06T05:55:49.516Z,20.13
2019-04-06T05:58:26.253Z,19.84
2019-04-06T06:01:00.073Z,20.08
2019-04-06T06:03:40.167Z,20.77
2019-04-06T06:06:12.812Z,20.48
2019-04-06T06:08:47.099Z,20.37
2019-04-06T06:11:20.815Z,20.29
2019-04-06T06:13:54.543Z,21.13
2019-04-06T06:16:28.701Z,21.72
2019-04-06T06:19:02.812Z,21.90
2019-04-06T06:21:36.476Z,21.17
2019-04-06T06:24:10.802Z,21.73
2019-04-06T06:26:45.051Z,22.66
2019-04-06T06:29:19.266Z,22.70
2019-04-06T06:31:54.900Z,21.79
2019-04-06T06:34:28.716Z,21.54
2019-04-06T06:37:02.709Z,20.88
2019-04-06T06:39:36.816Z,20.32
2019-04-06T06:42:10.829Z,20.10
2019-04-06T06:44:44.507Z,20.65
2019-04-06T06:47:18.350Z,20.30
2019-04-06T06:49:52.382Z,19.67
2019-04-06T06:52:29.666Z,19.78
2019-04-06T06:55:04.923Z,19.96
2019-04-06T06:57:39.503Z,18.70
2019-04-06T07:00:15.240Z,17.93
2019-04-06T07:02:49.128Z,18.19
2019-04-06T07:05:22.895Z,19.77
2019-04-06T07:08:05.134Z,19.68
2019-04-06T07:10:41.176Z,19.98
2019-04-06T07:13:15.311Z,20.91
2019-04-06T07:15:49.268Z,20.69
2019-04-06T07:18:24.026Z,20.40
2019-04-06T07:20:58.133Z,19.84
2019-04-06T07:23:31.866Z,19.84
2019-04-06T07:26:10.652Z,19.45
2019-04-06T07:28:44.919Z,19.50
2019-04-06T07:31:20.214Z,18.35
2019-04-06T07:33:53.879Z,18.04
2019-04-06T07:36:28.953Z,17.86
2019-04-06T07:39:02.725Z,17.90
2019-04-06T07:41:36.853Z,18.53
2019-04-06T07:44:11.092Z,20.42
2019-04-06T07:46:44.957Z,20.06
2019-04-06T07:49:18.618Z,19.98
2019-04-06T07:51:53.869Z,20.63
2019-04-06T07:54:28.128Z,20.80
2019-04-06T07:57:02.279Z,21.07
2019-04-06T07:59:36.021Z,21.44
2019-04-06T08:02:10.799Z,20.69
2019-04-06T08:04:44.698Z,20.44
2019-04-06T08:07:18.726Z,20.16
2019-04-06T08:09:52.792Z,20.15
2019-04-06T08:12:26.739Z,20.18
2019-04-06T08:15:01.031Z,20.33
2019-04-06T08:17:36.374Z,20.04
2019-04-06T08:20:11.853Z,20.38
2019-04-06T08:22:45.681Z,20.12
2019-04-06T08:25:22.714Z,20.55
2019-04-06T08:27:56.837Z,20.85
2019-04-06T08:30:30.788Z,20.59
2019-04-06T08:33:05.019Z,20.92
2019-04-06T08:35:40.436Z,21.00
2019-04-06T08:38:14.279Z,20.67
2019-04-06T08:40:48.728Z,20.97
2019-04-06T08:43:24.363Z,21.26
2019-04-06T08:46:00.585Z,21.13
2019-04-06T08:48:34.184Z,21.61
2019-04-06T08:51:09.100Z,21.28
2019-04-06T08:53:43.026Z,21.70
2019-04-06T08:56:17.870Z,21.77
2019-04-06T08:58:51.789Z,21.56
2019-04-06T09:01:25.960Z,21.82
2019-04-06T09:04:00.128Z,23.41
2019-04-06T09:06:34.442Z,24.02
2019-04-06T09:09:10.435Z,25.70
2019-04-06T09:11:46.581Z,26.84
2019-04-06T09:14:20.878Z,26.66
2019-04-06T09:16:55.470Z,26.78
2019-04-06T09:19:29.841Z,26.16
2019-04-06T09:22:05.652Z,26.24
2019-04-06T09:24:39.531Z,25.79
2019-04-06T09:27:13.810Z,25.70
2019-04-06T09:29:47.999Z,25.48
2019-04-06T09:32:22.849Z,25.84
2019-04-06T09:34:56.966Z,25.63
2019-04-06T09:37:32.323Z,25.39
2019-04-06T09:40:07.359Z,25.48
2019-04-06T09:42:42.019Z,25.48
2019-04-06T09:45:16.162Z,25.87
2019-04-06T09:47:50.074Z,26.06
2019-04-06T09:50:24.743Z,25.72
2019-04-06T09:53:04.757Z,25.81
2019-04-06T09:55:39.928Z,25.90
2019-04-06T09:58:14.395Z,25.79
2019-04-06T10:00:50.726Z,25.93
2019-04-06T10:03:34.539Z,26.57
2019-04-06T10:06:10.181Z,25.75
2019-04-06T10:08:44.182Z,24.65
2019-04-06T10:11:18.426Z,24.17
2019-04-06T10:13:53.647Z,25.27
2019-04-06T10:16:27.614Z,24.57
2019-04-06T10:19:07.909Z,25.24
2019-04-06T10:21:42.593Z,25.83
2019-04-06T10:24:17.293Z,26.48
2019-04-06T10:26:51.860Z,27.36
2019-04-06T10:29:26.839Z,27.77
2019-04-06T10:32:00.445Z,28.08
2019-04-06T10:34:34.336Z,28.90
2019-04-06T10:37:10.535Z,27.63
2019-04-06T10:39:46.064Z,27.85
2019-04-06T10:42:20.643Z,28.31
2019-04-06T10:44:54.520Z,28.06
2019-04-06T10:47:28.025Z,28.99
2019-04-06T10:50:02.419Z,28.77
2019-04-06T10:52:36.615Z,29.02
2019-04-06T10:55:12.681Z,29.53
2019-04-06T10:57:47.808Z,29.40
2019-04-06T11:00:24.686Z,29.50
2019-04-06T11:02:59.962Z,29.36
2019-04-06T11:05:36.813Z,29.36
2019-04-06T11:08:11.244Z,30.08
2019-04-06T11:10:45.137Z,30.44
2019-04-06T11:13:19.467Z,30.75
2019-04-06T11:15:54.117Z,30.66
2019-04-06T11:18:28.613Z,30.47
2019-04-06T11:21:03.832Z,30.41
2019-04-06T11:23:37.800Z,30.73
2019-04-06T11:26:11.766Z,31.31
2019-04-06T11:28:45.546Z,31.20
2019-04-06T11:31:21.032Z,31.24
2019-04-06T11:33:55.062Z,31.62
2019-04-06T11:36:28.918Z,31.61
2019-04-06T11:39:03.143Z,31.68
2019-04-06T11:41:36.924Z,31.87
2019-04-06T11:44:10.931Z,31.63
2019-04-06T11:46:44.731Z,32.05
2019-04-06T11:49:19.307Z,32.03
2019-04-06T11:51:53.715Z,31.78
2019-04-06T11:54:33.406Z,32.38
2019-04-06T11:57:08.815Z,32.41
2019-04-06T11:59:42.847Z,33.15
2019-04-06T12:02:16.559Z,32.55
2019-04-06T12:04:50.168Z,32.53
2019-04-06T12:07:26.135Z,32.41
2019-04-06T12:10:13.736Z,32.55
2019-04-06T12:13:05.979Z,32.49
2019-04-06T12:15:35.564Z,31.96
2019-04-06T12:18:10.875Z,32.66
2019-04-06T12:20:45.358Z,33.00
2019-04-06T12:23:19.941Z,33.18
2019-04-06T12:25:56.934Z,33.07
2019-04-06T12:28:31.924Z,32.34
2019-04-06T12:31:06.473Z,32.87
2019-04-06T12:33:42.665Z,33.03
2019-04-06T12:36:17.235Z,33.45
2019-04-06T12:38:52.197Z,33.18
2019-04-06T12:41:27.225Z,33.78
2019-04-06T12:44:01.443Z,33.28
2019-04-06T12:46:36.227Z,33.42
2019-04-06T12:49:10.593Z,33.61
2019-04-06T12:51:46.058Z,33.95
2019-04-06T12:54:32.765Z,33.70
2019-04-06T12:57:10.228Z,34.20
2019-04-06T12:59:45.612Z,34.29
2019-04-06T13:02:20.957Z,33.66
2019-04-06T13:04:57.619Z,33.42
2019-04-06T13:07:51.730Z,33.91
2019-04-06T13:10:26.270Z,33.44
2019-04-06T13:13:03.757Z,33.18
2019-04-06T13:15:40.248Z,32.79
2019-04-06T13:18:18.652Z,32.69
2019-04-06T13:20:54.355Z,33.49
2019-04-06T13:23:29.617Z,33.59
2019-04-06T13:26:10.489Z,33.54
2019-04-06T13:28:46.016Z,33.28
2019-04-06T13:31:20.290Z,32.86
2019-04-06T13:33:54.630Z,32.86
2019-04-06T13:36:32.042Z,32.90
2019-04-06T13:39:08.512Z,31.58
2019-04-06T13:41:43.632Z,31.78
2019-04-06T13:44:18.239Z,32.50
2019-04-06T13:46:52.721Z,32.44
2019-04-06T13:49:26.663Z,31.78
2019-04-06T13:52:06.264Z,32.08
2019-04-06T13:54:41.128Z,32.15
2019-04-06T13:57:16.065Z,32.06
2019-04-06T13:59:51.392Z,31.48
2019-04-06T14:02:25.893Z,31.59
2019-04-06T14:05:01.161Z,31.19
2019-04-06T14:07:35.830Z,30.49
2019-04-06T14:10:12.190Z,28.63
2019-04-06T14:12:47.038Z,29.49
2019-04-06T14:15:21.562Z,29.26
2019-04-06T14:18:01.967Z,29.49
2019-04-06T14:20:33.915Z,29.83
2019-04-06T14:23:12.771Z,29.75
2019-04-06T14:25:46.159Z,29.55
2019-04-06T14:28:20.731Z,30.27
2019-04-06T14:30:56.561Z,29.60
2019-04-06T14:33:30.907Z,29.06
2019-04-06T14:36:05.501Z,29.46
2019-04-06T14:38:42.254Z,27.75
2019-04-06T14:41:16.996Z,29.15
2019-04-06T14:43:51.646Z,27.78
2019-04-06T14:46:26.560Z,29.29
2019-04-06T14:49:13.600Z,28.74
2019-04-06T14:51:36.577Z,29.47
2019-04-06T14:54:11.472Z,29.02
2019-04-06T14:56:49.457Z,29.11
2019-04-06T14:59:23.937Z,29.05
2019-04-06T15:01:59.460Z,29.90
2019-04-06T15:04:33.250Z,29.22
2019-04-06T15:07:11.570Z,29.31
2019-04-06T15:09:43.078Z,29.21
2019-04-06T15:12:16.893Z,30.51
2019-04-06T15:14:51.512Z,28.83
2019-04-06T15:17:26.188Z,29.57
2019-04-06T15:20:00.786Z,30.85
2019-04-06T15:22:35.366Z,29.80
2019-04-06T15:25:10.615Z,29.76
2019-04-06T15:27:44.983Z,30.51
2019-04-06T15:30:20.086Z,29.97
2019-04-06T15:32:57.251Z,30.69
2019-04-06T15:35:31.459Z,30.04
2019-04-06T15:38:08.080Z,29.82
2019-04-06T15:40:43.473Z,30.25
2019-04-06T15:43:18.875Z,30.11
2019-04-06T15:45:52.950Z,28.36
2019-04-06T15:48:37.417Z,28.33
2019-04-06T15:51:01.661Z,27.46
2019-04-06T15:53:35.580Z,28.12
2019-04-06T15:56:09.874Z,28.29
2019-04-06T15:58:43.907Z,27.57
2019-04-06T16:01:17.671Z,27.44
2019-04-06T16:03:52.279Z,27.19
2019-04-06T16:06:26.730Z,27.94
2019-04-06T16:09:02.515Z,27.28
2019-04-06T16:11:38.858Z,28.17
2019-04-06T16:14:13.828Z,27.96
2019-04-06T16:16:47.981Z,27.62
2019-04-06T16:19:24.127Z,26.95
2019-04-06T16:22:00.770Z,27.97
2019-04-06T16:24:34.942Z,27.14
2019-04-06T16:27:11.436Z,27.63
2019-04-06T16:29:47.212Z,27.58
2019-04-06T16:32:30.973Z,27.39
2019-04-06T16:34:57.583Z,26.34
2019-04-06T16:37:32.268Z,27.43
2019-04-06T16:40:09.524Z,27.00
2019-04-06T16:42:46.026Z,26.62
2019-04-06T16:45:20.727Z,26.96
2019-04-06T16:47:55.269Z,27.03
2019-04-06T16:50:29.563Z,27.49
2019-04-06T16:53:04.867Z,26.85
2019-04-06T16:55:39.435Z,26.91
2019-04-06T16:58:15.431Z,27.33
2019-04-06T17:00:49.965Z,27.50
2019-04-06T17:03:24.264Z,28.09
2019-04-06T17:05:58.321Z,29.27
2019-04-06T17:08:32.384Z,29.20
2019-04-06T17:11:06.925Z,29.05
2019-04-06T17:13:41.190Z,28.71
2019-04-06T17:16:15.365Z,28.87
2019-04-06T17:18:51.269Z,29.23
2019-04-06T17:21:25.567Z,29.40
2019-04-06T17:24:00.067Z,29.82
2019-04-06T17:26:34.402Z,29.64
2019-04-06T17:29:09.714Z,29.67
2019-04-06T17:31:45.855Z,29.78
2019-04-06T17:34:19.932Z,30.41
2019-04-06T17:36:54.075Z,30.10
2019-04-06T17:39:30.182Z,29.80
2019-04-06T17:42:04.042Z,29.91
2019-04-06T17:44:38.240Z,30.54
2019-04-06T17:47:12.178Z,30.47
2019-04-06T17:49:46.513Z,30.72
2019-04-06T17:52:20.766Z,30.45
2019-04-06T17:54:54.887Z,30.49
2019-04-06T17:57:28.985Z,30.75
2019-04-06T18:00:02.926Z,30.99
2019-04-06T18:02:46.909Z,30.91
2019-04-06T18:05:12.520Z,30.91
2019-04-06T18:07:46.419Z,31.29
2019-04-06T18:10:20.353Z,31.51
2019-04-06T18:12:55.368Z,31.22
2019-04-06T18:15:29.040Z,32.03
2019-04-06T18:18:03.249Z,31.73
2019-04-06T18:20:36.911Z,31.88
2019-04-06T18:23:10.603Z,31.63
2019-04-06T18:25:44.657Z,31.58
2019-04-06T18:28:19.698Z,31.71
2019-04-06T18:30:53.715Z,32.32
2019-04-06T18:33:29.472Z,32.27
2019-04-06T18:36:05.437Z,32.37
2019-04-06T18:38:40.583Z,32.48
2019-04-06T18:41:14.840Z,32.60
2019-04-06T18:43:50.650Z,33.43
2019-04-06T18:46:25.157Z,32.79
2019-04-06T18:48:58.731Z,33.04
2019-04-06T18:51:32.765Z,33.46
2019-04-06T18:54:08.288Z,33.33
2019-04-06T18:56:41.372Z,33.53
2019-04-06T18:59:18.618Z,33.58
2019-04-06T19:01:52.230Z,34.02
2019-04-06T19:04:26.419Z,33.99
2019-04-06T19:07:00.327Z,34.81
2019-04-06T19:09:34.420Z,34.23
2019-04-06T19:12:08.207Z,34.03
2019-04-06T19:14:41.808Z,34.61
2019-04-06T19:17:15.759Z,34.21
2019-04-06T19:19:49.986Z,34.83
2019-04-06T19:22:23.991Z,35.46
2019-04-06T19:24:57.836Z,35.05
2019-04-06T19:27:34.056Z,35.53
2019-04-06T19:30:10.964Z,35.65
2019-04-06T19:32:44.752Z,36.07
2019-04-06T19:35:18.685Z,36.13
2019-04-06T19:37:52.455Z,36.18
2019-04-06T19:40:27.038Z,36.17
2019-04-06T19:43:01.051Z,36.02
2019-04-06T19:45:34.982Z,37.28
2019-04-06T19:48:09.654Z,37.78
2019-04-06T19:50:44.540Z,37.70
2019-04-06T19:53:18.877Z,37.69
2019-04-06T19:55:53.080Z,36.88
2019-04-06T19:58:27.405Z,37.24
2019-04-06T20:01:02.130Z,37.69
2019-04-06T20:03:39.273Z,37.53
2019-04-06T20:06:13.297Z,37.22
2019-04-06T20:08:47.548Z,37.40
2019-04-06T20:11:23.640Z,36.46
2019-04-06T20:13:57.403Z,37.12
2019-04-06T20:16:32.544Z,35.72
2019-04-06T20:19:07.735Z,35.25
2019-04-06T20:21:42.016Z,36.17
2019-04-06T20:24:16.034Z,36.37
2019-04-06T20:26:50.307Z,36.32
2019-04-06T20:29:24.763Z,35.45
2019-04-06T20:32:00.380Z,36.04
2019-04-06T20:34:34.735Z,35.61
2019-04-06T20:37:09.415Z,35.63
2019-04-06T20:40:02.315Z,35.73
2019-04-06T20:42:36.083Z,35.79
2019-04-06T20:45:11.393Z,36.63
2019-04-06T20:47:45.370Z,36.34
2019-04-06T20:50:19.384Z,37.30
2019-04-06T20:52:53.400Z,37.92
2019-04-06T20:55:28.089Z,36.46
2019-04-06T20:58:02.059Z,36.51
2019-04-06T21:00:36.195Z,36.32
2019-04-06T21:03:11.756Z,36.64
2019-04-06T21:05:46.491Z,37.32
2019-04-06T21:08:20.662Z,36.80
2019-04-06T21:10:54.185Z,36.77
2019-04-06T21:13:28.370Z,37.44
2019-04-06T21:16:02.222Z,37.84
2019-04-06T21:18:37.925Z,38.46
2019-04-06T21:21:11.711Z,36.98
2019-04-06T21:23:45.420Z,37.41
2019-04-06T21:26:19.434Z,37.17
2019-04-06T21:28:54.014Z,37.27
2019-04-06T21:31:29.025Z,37.24
2019-04-06T21:34:10.375Z,37.61
2019-04-06T21:36:38.648Z,37.73
2019-04-06T21:39:12.361Z,37.56
2019-04-06T21:41:45.944Z,37.60
2019-04-06T21:44:20.344Z,38.28
2019-04-06T21:46:54.643Z,37.75
2019-04-06T21:49:29.031Z,37.98
2019-04-06T21:52:04.887Z,37.99
2019-04-06T21:54:38.925Z,37.91
2019-04-06T21:57:12.899Z,38.28
2019-04-06T21:59:47.222Z,38.34
2019-04-06T22:02:21.636Z,38.66
2019-04-06T22:04:56.173Z,38.29
2019-04-06T22:07:29.942Z,38.63
2019-04-06T22:10:03.818Z,39.13
2019-04-06T22:12:37.814Z,38.85
2019-04-06T22:15:12.435Z,39.14
2019-04-06T22:17:46.753Z,39.04
2019-04-06T22:20:20.573Z,39.10
2019-04-06T22:22:54.226Z,39.22
2019-04-06T22:25:28.017Z,39.17
2019-04-06T22:28:01.880Z,39.38
2019-04-06T22:30:36.727Z,39.43
2019-04-06T22:33:10.764Z,39.15
2019-04-06T22:35:44.343Z,39.30
2019-04-06T22:38:18.188Z,39.24
2019-04-06T22:40:52.028Z,38.51
2019-04-06T22:43:26.136Z,38.06
2019-04-06T22:45:59.924Z,37.61
2019-04-06T22:48:33.887Z,38.02
2019-04-06T22:51:08.401Z,37.03
2019-04-06T22:53:42.264Z,36.23
2019-04-06T22:56:16.570Z,35.43
2019-04-06T22:58:51.593Z,34.42
2019-04-06T23:01:26.655Z,34.14
2019-04-06T23:04:01.402Z,33.70
2019-04-06T23:06:35.493Z,34.56
2019-04-06T23:09:11.011Z,34.67
2019-04-06T23:11:45.862Z,34.83
2019-04-06T23:14:20.771Z,35.74
2019-04-06T23:16:54.493Z,36.63
2019-04-06T23:19:28.480Z,36.22
2019-04-06T23:22:01.994Z,36.30
2019-04-06T23:24:36.365Z,35.81
2019-04-06T23:27:10.042Z,36.77
2019-04-06T23:29:44.017Z,36.85
2019-04-06T23:32:19.268Z,37.03
2019-04-06T23:34:59.914Z,36.96
2019-04-06T23:37:28.741Z,36.39
2019-04-06T23:40:02.406Z,36.54
2019-04-06T23:42:39.050Z,35.88
2019-04-06T23:45:12.945Z,35.48
2019-04-06T23:47:46.887Z,34.96
2019-04-06T23:50:20.606Z,34.43
2019-04-06T23:52:54.945Z,33.83
2019-04-06T23:55:29.408Z,34.58
2019-04-06T23:58:03.872Z,34.85
